LIMJ/GOA METAR and TAF weather

Enter ICAO airport designator
Station Type Date Time Source
LIMJ METAR 2021/09/20 03:50 UTC NOAA

LIMJ 200350Z 05008KT CAVOK 18/11 Q1010


Station Type Date Time Source
LIMJ Decoded METAR 2021/09/20 03:50 UTC NOAA

Genova / Sestri, Italy (LIMJ) 44-25N 008-51E 3M
Sep 19, 2021 - 11:50 PM EDT / 2021.09.20 0350 UTC
Wind: from the NE (050 degrees) at 9 MPH (8 KT):0
Visibility: greater than 7 mile(s):0
Temperature: 64 F (18 C)
Dew Point: 51 F (11 C)
Relative Humidity: 63%
Pressure (altimeter): 29.83 in. Hg (1010 hPa)
ob: LIMJ 200350Z 05008KT CAVOK 18/11 Q1010
cycle: 4

Station Type Date Time Source
LIMJ TAF 2021/09/19 18:21 UTC NOAA

TAF LIMJ 191700Z 1918/2018 15016KT 9999 BKN025
BECMG 1918/1920 03010KT

Example: see airport list